createdAt,value
2023-02-14T00:00:39.215Z,100420.63
2023-02-14T00:03:05.665Z,100421.41
2023-02-14T00:05:32.226Z,100411.91
2023-02-14T00:07:58.742Z,100415.41
2023-02-14T00:10:25.393Z,100415.41
2023-02-14T00:12:51.798Z,100416.25
2023-02-14T00:15:24.981Z,100415.47
2023-02-14T00:17:54.579Z,100416.50
2023-02-14T00:20:24.546Z,100414.78
2023-02-14T00:22:51.013Z,100418.13
2023-02-14T00:25:18.173Z,100420.06
2023-02-14T00:27:44.628Z,100421.78
2023-02-14T00:30:13.135Z,100421.84
2023-02-14T00:32:40.769Z,100420.88
2023-02-14T00:35:08.597Z,100415.59
2023-02-14T00:37:35.087Z,100414.03
2023-02-14T00:40:01.660Z,100414.97
2023-02-14T00:42:28.364Z,100415.13
2023-02-14T00:44:54.922Z,100416.00
2023-02-14T00:47:21.384Z,100420.41
2023-02-14T00:49:47.851Z,100417.00
2023-02-14T00:52:14.351Z,100413.50
2023-02-14T00:54:40.781Z,100404.72
2023-02-14T00:57:07.522Z,100407.25
2023-02-14T00:59:33.952Z,100412.44
2023-02-14T01:02:00.400Z,100408.06
2023-02-14T01:04:27.117Z,100407.22
2023-02-14T01:06:53.598Z,100404.75
2023-02-14T01:09:20.059Z,100410.75
2023-02-14T01:11:46.492Z,100409.84
2023-02-14T01:14:12.971Z,100409.00
2023-02-14T01:16:39.868Z,100413.38
2023-02-14T01:19:06.547Z,100406.38
2023-02-14T01:21:34.113Z,100410.72
2023-02-14T01:24:03.972Z,100409.94
2023-02-14T01:26:30.467Z,100412.44
2023-02-14T01:28:57.107Z,100406.38
2023-02-14T01:31:26.723Z,100415.06
2023-02-14T01:33:54.909Z,100408.22
2023-02-14T01:36:26.037Z,100416.16
2023-02-14T01:38:55.611Z,100415.31
2023-02-14T01:41:23.078Z,100406.66
2023-02-14T01:44:15.706Z,100399.72
2023-02-14T01:46:44.388Z,100407.72
2023-02-14T01:49:20.381Z,100400.66
2023-02-14T01:51:56.302Z,100407.59
2023-02-14T01:54:26.027Z,100406.78
2023-02-14T01:57:00.892Z,100406.06
2023-02-14T01:59:34.282Z,100409.59
2023-02-14T02:02:00.870Z,100398.25
2023-02-14T02:04:34.601Z,100404.50
2023-02-14T02:07:05.749Z,100411.44
2023-02-14T02:09:56.555Z,100407.09
2023-02-14T02:12:23.287Z,100404.44
2023-02-14T02:14:53.266Z,100405.56
2023-02-14T02:17:53.278Z,100402.84
2023-02-14T02:21:13.529Z,100400.13
2023-02-14T02:24:07.004Z,100402.81
2023-02-14T02:26:48.810Z,100397.53
2023-02-14T02:29:27.368Z,100399.47
2023-02-14T02:32:31.575Z,100395.06
2023-02-14T02:35:30.154Z,100392.59
2023-02-14T02:38:41.780Z,100388.13
2023-02-14T02:41:18.321Z,100386.38
2023-02-14T02:44:13.311Z,100389.88
2023-02-14T02:46:49.093Z,100379.44
2023-02-14T02:49:52.970Z,100389.91
2023-02-14T02:53:01.558Z,100388.13
2023-02-14T02:55:56.383Z,100379.50
2023-02-14T02:58:27.185Z,100377.69
2023-02-14T03:00:55.326Z,100384.00
2023-02-14T03:03:43.292Z,100377.84
2023-02-14T03:06:09.807Z,100383.91
2023-02-14T03:08:36.153Z,100388.13
2023-02-14T03:11:04.757Z,100386.41
2023-02-14T03:14:05.336Z,100381.97
2023-02-14T03:16:39.529Z,100378.41
2023-02-14T03:19:59.947Z,100377.56
2023-02-14T03:22:37.039Z,100376.81
2023-02-14T03:25:19.136Z,100381.19
2023-02-14T03:27:54.137Z,100378.44
2023-02-14T03:30:36.589Z,100372.13
2023-02-14T03:33:14.327Z,100375.38
2023-02-14T03:36:02.065Z,100367.44
2023-02-14T03:38:28.523Z,100379.06
2023-02-14T03:41:05.496Z,100373.25
2023-02-14T03:43:37.304Z,100372.69
2023-02-14T03:46:10.522Z,100376.47
2023-02-14T03:48:39.308Z,100379.03
2023-02-14T03:51:08.909Z,100370.63
2023-02-14T03:53:38.489Z,100371.53
2023-02-14T03:56:40.015Z,100376.94
2023-02-14T03:59:13.920Z,100386.81
2023-02-14T04:01:53.401Z,100384.97
2023-02-14T04:04:24.142Z,100388.03
2023-02-14T04:06:50.741Z,100378.13
2023-02-14T04:09:17.288Z,100384.97
2023-02-14T04:11:44.057Z,100389.22
2023-02-14T04:14:10.495Z,100386.22
2023-02-14T04:16:56.966Z,100390.47
2023-02-14T04:19:23.410Z,100389.44
2023-02-14T04:21:50.950Z,100391.06
2023-02-14T04:24:17.568Z,100389.25
2023-02-14T04:26:54.205Z,100386.59
2023-02-14T04:29:21.311Z,100387.41
2023-02-14T04:31:47.953Z,100377.78
2023-02-14T04:34:15.123Z,100379.56
2023-02-14T04:36:41.548Z,100375.44
2023-02-14T04:39:08.009Z,100380.69
2023-02-14T04:41:34.488Z,100381.63
2023-02-14T04:44:00.893Z,100385.19
2023-02-14T04:46:27.963Z,100385.25
2023-02-14T04:48:54.416Z,100379.97
2023-02-14T04:51:20.896Z,100386.13
2023-02-14T04:53:47.479Z,100382.53
2023-02-14T04:56:13.913Z,100377.44
2023-02-14T04:58:40.372Z,100380.75
2023-02-14T05:01:06.938Z,100387.66
2023-02-14T05:03:33.409Z,100381.28
2023-02-14T05:05:59.791Z,100378.66
2023-02-14T05:08:26.182Z,100380.22
2023-02-14T05:10:52.588Z,100383.75
2023-02-14T05:13:18.971Z,100379.28
2023-02-14T05:15:45.978Z,100380.09
2023-02-14T05:18:12.449Z,100381.09
2023-02-14T05:20:38.795Z,100374.91
2023-02-14T05:23:05.377Z,100373.28
2023-02-14T05:25:32.063Z,100374.06
2023-02-14T05:27:58.476Z,100377.44
2023-02-14T05:30:27.990Z,100373.94
2023-02-14T05:32:54.752Z,100371.34
2023-02-14T05:35:21.293Z,100364.28
2023-02-14T05:37:47.796Z,100371.81
2023-02-14T05:40:16.143Z,100371.63
2023-02-14T05:42:43.327Z,100372.63
2023-02-14T05:45:10.782Z,100373.47
2023-02-14T05:47:37.381Z,100371.47
2023-02-14T05:50:04.498Z,100373.25
2023-02-14T05:52:30.927Z,100369.00
2023-02-14T05:54:57.461Z,100378.63
2023-02-14T05:57:23.859Z,100375.06
2023-02-14T05:59:50.268Z,100374.00
2023-02-14T06:02:16.697Z,100376.28
2023-02-14T06:04:43.226Z,100376.75
2023-02-14T06:07:09.652Z,100378.72
2023-02-14T06:09:36.120Z,100363.84
2023-02-14T06:12:02.564Z,100371.44
2023-02-14T06:14:28.992Z,100369.94
2023-02-14T06:16:55.466Z,100365.84
2023-02-14T06:19:21.962Z,100370.97
2023-02-14T06:21:48.461Z,100371.66
2023-02-14T06:24:14.954Z,100368.00
2023-02-14T06:26:41.417Z,100371.38
2023-02-14T06:29:07.868Z,100375.81
2023-02-14T06:31:34.469Z,100387.28
2023-02-14T06:34:00.988Z,100387.41
2023-02-14T06:36:27.875Z,100382.66
2023-02-14T06:38:54.420Z,100380.59
2023-02-14T06:41:20.839Z,100382.66
2023-02-14T06:43:50.208Z,100375.63
2023-02-14T06:46:18.150Z,100385.94
2023-02-14T06:48:44.799Z,100382.72
2023-02-14T06:51:11.903Z,100380.63
2023-02-14T06:53:38.396Z,100376.41
2023-02-14T06:56:05.271Z,100368.91
2023-02-14T06:58:32.309Z,100369.91
2023-02-14T07:00:59.566Z,100369.81
2023-02-14T07:03:27.304Z,100365.63
2023-02-14T07:05:54.421Z,100363.59
2023-02-14T07:08:21.359Z,100367.19
2023-02-14T07:10:47.789Z,100362.19
2023-02-14T07:13:14.161Z,100364.66
2023-02-14T07:15:40.569Z,100362.13
2023-02-14T07:18:10.523Z,100363.97
2023-02-14T07:20:37.127Z,100368.75
2023-02-14T07:23:03.687Z,100362.81
2023-02-14T07:25:30.138Z,100378.75
2023-02-14T07:27:56.570Z,100375.22
2023-02-14T07:30:23.138Z,100378.88
2023-02-14T07:32:49.620Z,100372.16
2023-02-14T07:35:16.189Z,100379.34
2023-02-14T07:37:42.605Z,100365.84
2023-02-14T07:40:14.519Z,100374.53
2023-02-14T07:42:41.568Z,100378.06
2023-02-14T07:45:20.742Z,100375.09
2023-02-14T07:47:50.096Z,100377.59
2023-02-14T07:50:16.883Z,100371.31
2023-02-14T07:52:43.878Z,100373.28
2023-02-14T07:55:10.511Z,100370.44
2023-02-14T07:57:37.055Z,100370.59
2023-02-14T08:00:05.936Z,100379.66
2023-02-14T08:02:32.371Z,100368.66
2023-02-14T08:04:58.827Z,100380.63
2023-02-14T08:07:25.333Z,100381.34
2023-02-14T08:09:51.773Z,100376.59
2023-02-14T08:12:36.965Z,100373.72
2023-02-14T08:15:22.278Z,100369.63
2023-02-14T08:17:48.927Z,100371.09
2023-02-14T08:20:15.383Z,100374.31
2023-02-14T08:22:41.833Z,100374.03
2023-02-14T08:25:08.496Z,100361.59
2023-02-14T08:27:34.893Z,100374.13
2023-02-14T08:30:01.442Z,100369.38
2023-02-14T08:32:28.050Z,100368.53
2023-02-14T08:34:54.535Z,100370.25
2023-02-14T08:37:20.987Z,100370.91
2023-02-14T08:39:47.388Z,100373.38
2023-02-14T08:42:13.828Z,100371.72
2023-02-14T08:44:40.340Z,100367.09
2023-02-14T08:47:07.105Z,100375.88
2023-02-14T08:49:33.535Z,100372.34
2023-02-14T08:52:00.011Z,100378.03
2023-02-14T08:54:26.514Z,100367.88
2023-02-14T08:56:52.918Z,100371.34
2023-02-14T08:59:19.378Z,100373.25
2023-02-14T09:01:45.833Z,100372.72
2023-02-14T09:04:12.297Z,100365.94
2023-02-14T09:06:39.493Z,100365.78
2023-02-14T09:09:07.231Z,100363.22
2023-02-14T09:11:34.741Z,100375.44
2023-02-14T09:14:01.253Z,100369.00
2023-02-14T09:16:27.746Z,100368.84
2023-02-14T09:18:54.750Z,100364.94
2023-02-14T09:21:24.988Z,100371.53
2023-02-14T09:23:52.272Z,100365.38
2023-02-14T09:26:19.891Z,100365.78
2023-02-14T09:28:46.542Z,100366.63
2023-02-14T09:31:22.839Z,100362.75
2023-02-14T09:33:50.441Z,100359.66
2023-02-14T09:36:35.470Z,100364.59
2023-02-14T09:39:01.990Z,100359.59
2023-02-14T09:41:28.306Z,100370.97
2023-02-14T09:43:54.691Z,100368.66
2023-02-14T09:46:24.681Z,100369.66
2023-02-14T09:48:53.152Z,100366.34
2023-02-14T09:51:23.332Z,100367.03
2023-02-14T09:53:55.096Z,100370.63
2023-02-14T09:56:31.077Z,100371.16
2023-02-14T09:59:12.550Z,100366.34
2023-02-14T10:01:49.406Z,100373.09
2023-02-14T10:04:21.637Z,100365.22
2023-02-14T10:06:54.827Z,100375.44
2023-02-14T10:09:42.935Z,100371.25
2023-02-14T10:12:24.291Z,100372.50
2023-02-14T10:14:53.416Z,100376.16
2023-02-14T10:17:31.318Z,100373.50
2023-02-14T10:20:05.724Z,100366.50
2023-02-14T10:22:43.225Z,100372.78
2023-02-14T10:25:38.921Z,100378.47
2023-02-14T10:28:12.117Z,100372.88
2023-02-14T10:30:40.245Z,100381.09
2023-02-14T10:33:17.695Z,100385.63
2023-02-14T10:35:55.457Z,100375.56
2023-02-14T10:38:33.748Z,100373.25
2023-02-14T10:41:08.658Z,100366.88
2023-02-14T10:44:06.011Z,100366.22
2023-02-14T10:46:53.584Z,100357.88
2023-02-14T10:49:40.412Z,100359.72
2023-02-14T10:52:27.197Z,100358.16
2023-02-14T10:54:57.131Z,100361.56
2023-02-14T10:57:36.062Z,100359.00
2023-02-14T11:00:23.269Z,100359.34
2023-02-14T11:02:53.618Z,100355.88
2023-02-14T11:05:45.050Z,100343.34
2023-02-14T11:08:33.092Z,100353.66
2023-02-14T11:11:29.539Z,100347.56
2023-02-14T11:13:55.976Z,100346.53
2023-02-14T11:16:34.552Z,100338.19
2023-02-14T11:19:15.996Z,100330.81
2023-02-14T11:21:44.592Z,100335.63
2023-02-14T11:24:36.397Z,100334.47
2023-02-14T11:27:07.373Z,100331.25
2023-02-14T11:29:48.122Z,100332.44
2023-02-14T11:32:29.777Z,100330.03
2023-02-14T11:35:04.884Z,100323.53
2023-02-14T11:37:37.034Z,100318.84
2023-02-14T11:40:05.197Z,100324.19
2023-02-14T11:42:42.721Z,100317.94
2023-02-14T11:45:27.949Z,100320.16
2023-02-14T11:48:06.528Z,100313.81
2023-02-14T11:50:33.120Z,100318.97
2023-02-14T11:53:00.127Z,100313.47
2023-02-14T11:55:29.626Z,100314.78
2023-02-14T11:57:57.505Z,100305.47
2023-02-14T12:00:27.026Z,100304.03
2023-02-14T12:02:53.989Z,100305.84
2023-02-14T12:05:23.006Z,100301.31
2023-02-14T12:07:55.236Z,100290.50
2023-02-14T12:10:28.039Z,100296.47
2023-02-14T12:13:08.640Z,100282.16
2023-02-14T12:15:43.858Z,100285.69
2023-02-14T12:18:34.589Z,100278.00
2023-02-14T12:21:12.702Z,100287.66
2023-02-14T12:23:56.749Z,100283.50
2023-02-14T12:26:35.007Z,100275.44
2023-02-14T12:29:20.041Z,100276.31
2023-02-14T12:31:48.501Z,100275.50
2023-02-14T12:34:17.519Z,100272.78
2023-02-14T12:36:50.110Z,100268.31
2023-02-14T12:39:36.901Z,100262.50
2023-02-14T12:42:03.465Z,100268.78
2023-02-14T12:44:46.694Z,100261.59
2023-02-14T12:47:40.318Z,100258.00
2023-02-14T12:50:36.030Z,100251.69
2023-02-14T12:53:08.146Z,100250.44
2023-02-14T12:56:05.672Z,100246.53
2023-02-14T12:58:38.100Z,100247.16
2023-02-14T13:01:38.514Z,100237.44
2023-02-14T13:04:22.608Z,100236.34
2023-02-14T13:06:55.881Z,100224.22
2023-02-14T13:09:47.719Z,100222.88
2023-02-14T13:12:36.230Z,100215.56
2023-02-14T13:15:19.976Z,100226.78
2023-02-14T13:18:03.193Z,100213.13
2023-02-14T13:20:48.448Z,100226.25
2023-02-14T13:23:27.489Z,100212.88
2023-02-14T13:26:48.517Z,100211.81
2023-02-14T13:29:20.478Z,100206.91
2023-02-14T13:31:48.693Z,100206.38
2023-02-14T13:34:30.599Z,100197.69
2023-02-14T13:36:58.813Z,100198.13
2023-02-14T13:39:36.195Z,100192.41
2023-02-14T13:42:05.941Z,100190.72
2023-02-14T13:44:38.565Z,100196.25
2023-02-14T13:47:07.959Z,100196.66
2023-02-14T13:49:39.182Z,100197.97
2023-02-14T13:52:06.616Z,100191.28
2023-02-14T13:54:45.863Z,100189.00
2023-02-14T13:57:32.176Z,100188.66
2023-02-14T14:00:17.109Z,100183.22
2023-02-14T14:02:47.575Z,100183.94
2023-02-14T14:05:40.467Z,100186.69
2023-02-14T14:08:25.028Z,100181.31
2023-02-14T14:10:55.382Z,100180.31
2023-02-14T14:13:40.127Z,100177.75
2023-02-14T14:16:27.718Z,100168.81
2023-02-14T14:18:56.280Z,100174.19
2023-02-14T14:21:28.724Z,100179.47
2023-02-14T14:24:14.934Z,100172.63
2023-02-14T14:26:53.151Z,100172.06
2023-02-14T14:29:28.484Z,100170.44
2023-02-14T14:31:57.726Z,100166.03
2023-02-14T14:34:27.751Z,100157.47
2023-02-14T14:37:15.120Z,100157.38
2023-02-14T14:39:41.851Z,100163.13
2023-02-14T14:42:13.115Z,100160.00
2023-02-14T14:44:51.137Z,100151.78
2023-02-14T14:47:21.893Z,100157.25
2023-02-14T14:49:48.757Z,100163.16
2023-02-14T14:52:31.873Z,100151.31
2023-02-14T14:54:59.428Z,100144.84
2023-02-14T14:57:26.113Z,100148.13
2023-02-14T15:00:09.441Z,100156.06
2023-02-14T15:02:35.904Z,100154.06
2023-02-14T15:05:25.916Z,100155.84
2023-02-14T15:07:52.643Z,100142.63
2023-02-14T15:10:30.662Z,100142.53
2023-02-14T15:13:17.412Z,100143.19
2023-02-14T15:15:50.884Z,100137.91
2023-02-14T15:18:18.422Z,100132.22
2023-02-14T15:20:49.663Z,100129.44
2023-02-14T15:23:19.957Z,100130.09
2023-02-14T15:25:49.013Z,100131.44
2023-02-14T15:28:27.676Z,100127.63
2023-02-14T15:30:59.576Z,100129.34
2023-02-14T15:33:28.679Z,100126.94
2023-02-14T15:35:56.677Z,100120.44
2023-02-14T15:38:24.455Z,100120.16
2023-02-14T15:40:54.524Z,100128.34
2023-02-14T15:43:30.247Z,100124.09
2023-02-14T15:46:34.583Z,100128.19
2023-02-14T15:49:08.144Z,100121.47
2023-02-14T15:51:36.441Z,100119.53
2023-02-14T15:54:07.550Z,100113.75
2023-02-14T15:56:43.606Z,100115.72
2023-02-14T15:59:19.881Z,100125.91
2023-02-14T16:01:59.602Z,100119.97
2023-02-14T16:04:31.792Z,100117.72
2023-02-14T16:07:21.430Z,100113.63
2023-02-14T16:09:49.402Z,100126.13
2023-02-14T16:12:30.883Z,100120.34
2023-02-14T16:15:03.452Z,100113.22
2023-02-14T16:17:34.759Z,100114.63
2023-02-14T16:20:21.135Z,100116.47
2023-02-14T16:22:47.606Z,100115.94
2023-02-14T16:25:14.280Z,100115.19
2023-02-14T16:27:40.921Z,100112.75
2023-02-14T16:30:09.120Z,100115.75
2023-02-14T16:32:37.040Z,100112.88
2023-02-14T16:35:03.550Z,100119.00
2023-02-14T16:37:34.756Z,100113.13
2023-02-14T16:40:01.871Z,100107.91
2023-02-14T16:42:28.366Z,100115.19
2023-02-14T16:44:54.815Z,100107.84
2023-02-14T16:47:21.311Z,100117.69
2023-02-14T16:49:48.079Z,100116.75
2023-02-14T16:52:23.466Z,100116.13
2023-02-14T16:54:50.317Z,100110.22
2023-02-14T16:57:21.629Z,100111.34
2023-02-14T16:59:49.303Z,100111.59
2023-02-14T17:02:18.378Z,100116.34
2023-02-14T17:04:45.325Z,100117.13
2023-02-14T17:07:14.384Z,100114.91
2023-02-14T17:09:44.817Z,100113.63
2023-02-14T17:12:16.951Z,100119.13
2023-02-14T17:14:48.951Z,100119.25
2023-02-14T17:17:16.065Z,100119.63
2023-02-14T17:19:43.019Z,100113.88
2023-02-14T17:22:12.967Z,100117.28
2023-02-14T17:24:39.855Z,100123.69
2023-02-14T17:27:07.633Z,100129.63
2023-02-14T17:29:34.406Z,100125.66
2023-02-14T17:32:00.972Z,100125.72
2023-02-14T17:34:31.856Z,100127.84
2023-02-14T17:36:58.724Z,100136.84
2023-02-14T17:39:25.192Z,100132.50
2023-02-14T17:41:53.144Z,100133.34
2023-02-14T17:44:19.709Z,100134.28
2023-02-14T17:46:46.261Z,100123.84
2023-02-14T17:49:12.724Z,100131.88
2023-02-14T17:51:39.294Z,100121.69
2023-02-14T17:54:05.758Z,100133.28
2023-02-14T17:56:32.169Z,100128.38
2023-02-14T17:58:59.765Z,100130.31
2023-02-14T18:01:31.474Z,100133.28
2023-02-14T18:03:58.320Z,100128.91
2023-02-14T18:06:26.583Z,100133.22
2023-02-14T18:08:56.632Z,100129.97
2023-02-14T18:11:25.882Z,100125.19
2023-02-14T18:13:56.213Z,100117.56
2023-02-14T18:16:22.867Z,100120.31
2023-02-14T18:18:49.437Z,100114.03
2023-02-14T18:21:20.252Z,100110.19
2023-02-14T18:23:48.034Z,100103.53
2023-02-14T18:26:17.954Z,100095.91
2023-02-14T18:28:44.943Z,100097.19
2023-02-14T18:31:14.585Z,100098.03
2023-02-14T18:33:41.663Z,100099.69
2023-02-14T18:36:12.154Z,100096.25
2023-02-14T18:38:40.242Z,100108.47
2023-02-14T18:41:09.264Z,100093.50
2023-02-14T18:43:36.480Z,100092.88
2023-02-14T18:46:09.199Z,100095.69
2023-02-14T18:48:36.356Z,100097.63
2023-02-14T18:51:08.716Z,100094.34
2023-02-14T18:53:36.375Z,100092.84
2023-02-14T18:56:07.622Z,100089.44
2023-02-14T18:58:48.424Z,100077.16
2023-02-14T19:01:17.701Z,100082.00
2023-02-14T19:03:49.571Z,100079.63
2023-02-14T19:06:16.785Z,100072.88
2023-02-14T19:08:43.801Z,100071.94
2023-02-14T19:11:19.692Z,100061.59
2023-02-14T19:13:52.244Z,100059.38
2023-02-14T19:16:30.629Z,100055.25
2023-02-14T19:18:58.927Z,100057.69
2023-02-14T19:21:27.758Z,100049.66
2023-02-14T19:23:56.475Z,100060.06
2023-02-14T19:26:30.003Z,100057.88
2023-02-14T19:28:58.580Z,100063.75
2023-02-14T19:31:26.300Z,100057.75
2023-02-14T19:33:53.150Z,100061.44
2023-02-14T19:36:21.830Z,100063.81
2023-02-14T19:38:51.396Z,100053.63
2023-02-14T19:41:27.486Z,100053.63
2023-02-14T19:44:00.537Z,100057.97
2023-02-14T19:46:28.234Z,100054.56
2023-02-14T19:49:04.295Z,100061.84
2023-02-14T19:51:33.397Z,100059.13
2023-02-14T19:54:02.468Z,100053.94
2023-02-14T19:56:32.936Z,100061.56
2023-02-14T19:58:59.721Z,100050.47
2023-02-14T20:01:39.381Z,100054.50
2023-02-14T20:04:09.807Z,100059.75
2023-02-14T20:06:40.457Z,100051.88
2023-02-14T20:09:08.468Z,100051.53
2023-02-14T20:11:46.555Z,100051.38
2023-02-14T20:14:14.153Z,100047.53
2023-02-14T20:16:40.744Z,100043.28
2023-02-14T20:19:12.093Z,100040.47
2023-02-14T20:21:43.355Z,100038.56
2023-02-14T20:24:11.689Z,100047.47
2023-02-14T20:26:39.423Z,100035.63
2023-02-14T20:29:07.068Z,100040.06
2023-02-14T20:31:34.512Z,100041.41
2023-02-14T20:34:01.431Z,100041.03
2023-02-14T20:36:28.271Z,100029.66
2023-02-14T20:38:59.177Z,100041.00
2023-02-14T20:41:27.590Z,100032.88
2023-02-14T20:43:55.398Z,100035.22
2023-02-14T20:46:22.544Z,100035.38
2023-02-14T20:48:50.899Z,100029.06
2023-02-14T20:51:19.094Z,100028.63
2023-02-14T20:53:46.750Z,100026.59
2023-02-14T20:56:14.367Z,100023.69
2023-02-14T20:58:41.298Z,100026.69
2023-02-14T21:01:16.319Z,100028.25
2023-02-14T21:03:46.684Z,100025.88
2023-02-14T21:06:14.866Z,100025.41
2023-02-14T21:08:42.678Z,100021.94
2023-02-14T21:11:11.646Z,100022.53
2023-02-14T21:13:38.419Z,100013.75
2023-02-14T21:16:08.337Z,100014.31
2023-02-14T21:18:35.662Z,100012.94
2023-02-14T21:21:12.163Z,100010.28
2023-02-14T21:23:38.539Z,100017.28
2023-02-14T21:26:05.043Z,100019.50
2023-02-14T21:28:31.531Z,100012.34
2023-02-14T21:31:09.104Z,100014.31
2023-02-14T21:33:36.516Z,100008.09
2023-02-14T21:36:14.759Z,100007.44
2023-02-14T21:38:41.342Z,100003.09
2023-02-14T21:41:11.388Z,100000.63
2023-02-14T21:43:40.453Z,99997.69
2023-02-14T21:46:09.429Z,99992.13
2023-02-14T21:48:55.120Z,99984.94
2023-02-14T21:51:22.394Z,99984.84
2023-02-14T21:53:49.191Z,99984.66
2023-02-14T21:56:19.560Z,99984.47
2023-02-14T21:58:47.837Z,99984.94
2023-02-14T22:01:43.858Z,99988.31
2023-02-14T22:04:12.286Z,99980.97
2023-02-14T22:06:40.336Z,99983.25
2023-02-14T22:09:07.526Z,99983.38
2023-02-14T22:11:35.032Z,99977.59
2023-02-14T22:14:02.064Z,99983.69
2023-02-14T22:16:28.659Z,99983.41
2023-02-14T22:18:55.189Z,99979.13
2023-02-14T22:21:24.871Z,99987.94
2023-02-14T22:23:51.341Z,99985.16
2023-02-14T22:26:22.832Z,99980.28
2023-02-14T22:28:51.576Z,99981.22
2023-02-14T22:31:18.952Z,99972.31
2023-02-14T22:33:47.076Z,99974.00
2023-02-14T22:36:13.486Z,99968.00
2023-02-14T22:38:40.023Z,99968.69
2023-02-14T22:41:20.458Z,99972.31
2023-02-14T22:43:47.081Z,99976.09
2023-02-14T22:46:22.013Z,99973.25
2023-02-14T22:48:50.082Z,99969.91
2023-02-14T22:51:25.281Z,99963.06
2023-02-14T22:53:54.857Z,99959.31
2023-02-14T22:56:26.995Z,99961.69
2023-02-14T22:58:58.497Z,99963.44
2023-02-14T23:01:25.891Z,99957.72
2023-02-14T23:03:54.182Z,99961.16
2023-02-14T23:06:20.691Z,99973.03
2023-02-14T23:08:47.655Z,99966.47
2023-02-14T23:11:20.785Z,99964.47
2023-02-14T23:14:05.903Z,99969.56
2023-02-14T23:16:50.867Z,99965.78
2023-02-14T23:19:42.089Z,99963.44
2023-02-14T23:22:10.205Z,99967.16
2023-02-14T23:24:37.349Z,99973.66
2023-02-14T23:27:04.163Z,99969.06
2023-02-14T23:29:33.316Z,99973.81
2023-02-14T23:31:59.870Z,99967.56
2023-02-14T23:34:32.075Z,99973.81
2023-02-14T23:36:59.640Z,99972.84
2023-02-14T23:39:26.336Z,99975.81
2023-02-14T23:41:53.213Z,99971.75
2023-02-14T23:44:27.736Z,99973.81
2023-02-14T23:46:56.933Z,99978.47
2023-02-14T23:49:27.507Z,99974.88
2023-02-14T23:51:55.279Z,99978.88
2023-02-14T23:54:25.522Z,99964.94
2023-02-14T23:56:52.843Z,99959.53
2023-02-14T23:59:21.097Z,99962.94
